Time;durP1;ratioP1;P1;durP2;ratioP2;P2;SDS_P1;SDS_P2;PMS_P1;PMS_P2;Temp;Humidity;BMP_temperature;BMP_pressure;BME280_temperature;BME280_humidity;BME280_pressure;Samples;Min_cycle;Max_cycle;Signal;HPM_P1;HPM_P2
2023/09/21 00:00:27;;;;;;;10.50;8.88;;;;;;;;;;5083534;28;20405;-76
2023/09/21 00:02:55;;;;;;;13.38;10.27;;;;;;;;;;5084187;28;20123;-76
2023/09/21 00:05:24;;;;;;;17.33;9.27;;;;;;;;;;5076090;28;20032;-76
2023/09/21 00:07:57;;;;;;;13.93;9.90;;;;;;;;;;5080059;28;20028;-75
2023/09/21 00:10:23;;;;;;;20.08;11.63;;;;;;;;;;5083221;28;20070;-78
2023/09/21 00:12:48;;;;;;;17.60;9.15;;;;;;;;;;5083317;28;20039;-77
2023/09/21 00:15:16;;;;;;;9.48;8.32;;;;;;;;;;5082371;28;20036;-76
2023/09/21 00:17:42;;;;;;;13.93;7.57;;;;;;;;;;5084386;28;20643;-76
2023/09/21 00:20:17;;;;;;;13.77;8.93;;;;;;;;;;5082843;28;20106;-75
2023/09/21 00:22:43;;;;;;;14.52;9.65;;;;;;;;;;5080341;28;20020;-75
2023/09/21 00:25:09;;;;;;;14.38;9.38;;;;;;;;;;5072292;28;20055;-75
2023/09/21 00:27:34;;;;;;;14.48;8.68;;;;;;;;;;5083224;28;20104;-75
2023/09/21 00:30:04;;;;;;;16.05;9.50;;;;;;;;;;5082574;28;20043;-77
2023/09/21 00:32:29;;;;;;;15.38;9.98;;;;;;;;;;5083096;28;20050;-75
2023/09/21 00:34:55;;;;;;;13.50;9.95;;;;;;;;;;5083100;28;20495;-74
2023/09/21 00:37:20;;;;;;;16.88;9.35;;;;;;;;;;5083323;28;20324;-75
2023/09/21 00:39:47;;;;;;;12.13;8.13;;;;;;;;;;5078749;28;20035;-74
2023/09/21 00:42:12;;;;;;;14.00;8.07;;;;;;;;;;5075060;28;20135;-75
2023/09/21 00:44:38;;;;;;;11.60;9.43;;;;;;;;;;5082321;28;20108;-74
2023/09/21 00:47:03;;;;;;;11.98;9.95;;;;;;;;;;5084416;28;20120;-74
2023/09/21 00:49:29;;;;;;;15.35;9.50;;;;;;;;;;5083562;28;20032;-75
2023/09/21 00:51:55;;;;;;;14.52;8.73;;;;;;;;;;5081959;28;20067;-75
2023/09/21 00:54:21;;;;;;;13.75;9.75;;;;;;;;;;5083301;28;20024;-75
2023/09/21 00:56:48;;;;;;;14.50;9.35;;;;;;;;;;5081786;28;20026;-75
2023/09/21 00:59:15;;;;;;;12.65;8.75;;;;;;;;;;5085065;28;20028;-75
2023/09/21 01:01:41;;;;;;;13.57;9.02;;;;;;;;;;5086357;28;20101;-76
2023/09/21 01:04:06;;;;;;;13.98;9.13;;;;;;;;;;5086711;28;20036;-76
2023/09/21 01:06:32;;;;;;;11.13;8.73;;;;;;;;;;5086729;28;20038;-76
2023/09/21 01:08:58;;;;;;;12.00;9.40;;;;;;;;;;5085017;28;20066;-74
2023/09/21 01:11:24;;;;;;;14.52;9.32;;;;;;;;;;5087599;28;20072;-77
2023/09/21 01:13:51;;;;;;;17.75;9.75;;;;;;;;;;5086064;28;20486;-75
2023/09/21 01:16:17;;;;;;;12.35;9.30;;;;;;;;;;5078667;28;21037;-75
2023/09/21 01:18:42;;;;;;;15.57;8.82;;;;;;;;;;5069971;28;20027;-77
2023/09/21 01:21:10;;;;;;;14.93;9.82;;;;;;;;;;5070504;28;20373;-75
2023/09/21 01:23:43;;;;;;;14.05;8.88;;;;;;;;;;5074013;28;20485;-76
2023/09/21 01:26:08;;;;;;;13.30;9.07;;;;;;;;;;5085880;28;20038;-75
2023/09/21 01:28:34;;;;;;;14.13;9.13;;;;;;;;;;5085661;28;20028;-75
2023/09/21 01:31:00;;;;;;;10.45;8.98;;;;;;;;;;5087155;28;20150;-76
2023/09/21 01:33:26;;;;;;;11.85;8.75;;;;;;;;;;5086570;28;20020;-75
2023/09/21 01:35:51;;;;;;;12.82;9.18;;;;;;;;;;5086044;28;21359;-76
2023/09/21 01:38:17;;;;;;;12.57;9.13;;;;;;;;;;5084791;28;20048;-75
2023/09/21 01:40:43;;;;;;;13.20;8.85;;;;;;;;;;5077246;28;20039;-76
2023/09/21 01:43:09;;;;;;;14.38;9.93;;;;;;;;;;5081500;28;20544;-74
2023/09/21 01:45:37;;;;;;;11.40;8.80;;;;;;;;;;5080174;28;20346;-75
2023/09/21 01:48:10;;;;;;;12.40;9.73;;;;;;;;;;5077967;28;20028;-75
2023/09/21 01:50:45;;;;;;;15.70;9.55;;;;;;;;;;5086246;28;20035;-76
2023/09/21 01:53:11;;;;;;;11.27;8.50;;;;;;;;;;5084329;28;20028;-76
2023/09/21 01:55:37;;;;;;;13.07;8.90;;;;;;;;;;5084514;28;20020;-76
2023/09/21 01:58:04;;;;;;;15.23;8.73;;;;;;;;;;5085399;28;20081;-77
2023/09/21 02:00:29;;;;;;;12.93;9.50;;;;;;;;;;5085602;28;20039;-76
2023/09/21 02:02:55;;;;;;;13.80;8.50;;;;;;;;;;5084880;28;20213;-75
2023/09/21 02:05:21;;;;;;;14.73;9.27;;;;;;;;;;5081971;28;20032;-75
2023/09/21 02:07:47;;;;;;;12.00;8.77;;;;;;;;;;5072481;28;20110;-75
2023/09/21 02:10:15;;;;;;;13.13;8.70;;;;;;;;;;5085471;28;20057;-76
2023/09/21 02:12:41;;;;;;;11.70;8.55;;;;;;;;;;5085778;28;20028;-75
2023/09/21 02:15:12;;;;;;;10.32;7.82;;;;;;;;;;5084524;28;20024;-76
2023/09/21 02:17:41;;;;;;;14.52;8.40;;;;;;;;;;5084326;28;20078;-75
2023/09/21 02:20:14;;;;;;;14.20;9.00;;;;;;;;;;5073099;28;20497;-77
2023/09/21 02:22:48;;;;;;;13.35;8.43;;;;;;;;;;5072895;28;20054;-76
2023/09/21 02:25:14;;;;;;;11.45;8.00;;;;;;;;;;5085753;28;20032;-76
2023/09/21 02:27:46;;;;;;;10.65;8.15;;;;;;;;;;5074340;28;20031;-75
2023/09/21 02:30:14;;;;;;;13.98;8.65;;;;;;;;;;5084841;28;20355;-76
2023/09/21 02:32:49;;;;;;;14.10;8.90;;;;;;;;;;5086519;28;20028;-76
2023/09/21 02:35:23;;;;;;;15.80;8.68;;;;;;;;;;5085953;28;20020;-75
2023/09/21 02:37:49;;;;;;;11.02;8.32;;;;;;;;;;5076591;28;20111;-79
2023/09/21 02:40:16;;;;;;;11.85;8.65;;;;;;;;;;5069499;28;20039;-75
2023/09/21 02:42:42;;;;;;;11.35;8.38;;;;;;;;;;5068198;28;20113;-77
2023/09/21 02:45:10;;;;;;;19.40;9.60;;;;;;;;;;5069409;28;20542;-77
2023/09/21 02:47:36;;;;;;;16.30;8.77;;;;;;;;;;5068736;28;20534;-77
2023/09/21 02:50:14;;;;;;;17.70;8.60;;;;;;;;;;5083059;28;20111;-76
2023/09/21 02:52:42;;;;;;;15.40;8.90;;;;;;;;;;5072417;28;20446;-77
2023/09/21 02:55:08;;;;;;;10.13;8.68;;;;;;;;;;5082939;28;20461;-75
2023/09/21 02:57:33;;;;;;;13.82;9.73;;;;;;;;;;5083929;28;20111;-76
2023/09/21 03:00:08;;;;;;;12.40;9.25;;;;;;;;;;5084680;28;20063;-78
2023/09/21 03:02:33;;;;;;;16.45;9.63;;;;;;;;;;5084156;28;20112;-77
2023/09/21 03:05:00;;;;;;;12.60;8.40;;;;;;;;;;5070768;28;20439;-78
2023/09/21 03:07:27;;;;;;;11.80;8.68;;;;;;;;;;5084668;28;20027;-80
2023/09/21 03:09:53;;;;;;;14.35;8.23;;;;;;;;;;5084946;28;20030;-79
2023/09/21 03:12:20;;;;;;;12.13;8.07;;;;;;;;;;5084038;28;20024;-77
2023/09/21 03:14:46;;;;;;;17.45;8.55;;;;;;;;;;5084809;28;20016;-77
2023/09/21 03:17:14;;;;;;;12.90;8.38;;;;;;;;;;5084933;28;20059;-76
2023/09/21 03:19:39;;;;;;;13.60;7.78;;;;;;;;;;5083779;28;20028;-75
2023/09/21 03:22:05;;;;;;;13.00;8.57;;;;;;;;;;5084580;28;20093;-77
2023/09/21 03:24:30;;;;;;;11.27;7.65;;;;;;;;;;5083478;28;20459;-74
2023/09/21 03:26:56;;;;;;;12.90;8.70;;;;;;;;;;5083535;28;20115;-79
2023/09/21 03:29:21;;;;;;;13.57;8.82;;;;;;;;;;5084146;28;20431;-77
2023/09/21 03:31:47;;;;;;;15.93;8.85;;;;;;;;;;5083679;28;20351;-77
2023/09/21 03:34:12;;;;;;;14.15;8.88;;;;;;;;;;5084841;28;20020;-77
2023/09/21 03:36:38;;;;;;;11.52;9.02;;;;;;;;;;5083278;28;20027;-78
2023/09/21 03:39:09;;;;;;;14.13;8.85;;;;;;;;;;5070170;28;20536;-77
2023/09/21 03:41:35;;;;;;;13.95;8.95;;;;;;;;;;5081452;28;20044;-80
2023/09/21 03:44:01;;;;;;;12.77;7.90;;;;;;;;;;5081950;28;20123;-77
2023/09/21 03:46:26;;;;;;;12.98;9.00;;;;;;;;;;5082897;28;20110;-80
2023/09/21 03:48:51;;;;;;;13.18;9.00;;;;;;;;;;5083329;28;20020;-78
2023/09/21 03:51:17;;;;;;;11.68;8.73;;;;;;;;;;5084336;28;20024;-78
2023/09/21 03:53:42;;;;;;;9.88;8.85;;;;;;;;;;5082920;28;20024;-78
2023/09/21 03:56:07;;;;;;;16.08;9.05;;;;;;;;;;5085286;28;20342;-77
2023/09/21 03:58:33;;;;;;;12.45;8.55;;;;;;;;;;5073495;28;20081;-76
2023/09/21 04:01:04;;;;;;;11.70;8.52;;;;;;;;;;5074810;28;20121;-76
2023/09/21 04:03:29;;;;;;;16.90;9.30;;;;;;;;;;5068322;28;20123;-75
2023/09/21 04:05:56;;;;;;;13.88;9.07;;;;;;;;;;5067387;28;20202;-77
2023/09/21 04:08:21;;;;;;;10.23;8.90;;;;;;;;;;5067128;28;20027;-74
2023/09/21 04:10:46;;;;;;;15.88;9.90;;;;;;;;;;5068470;28;20032;-76
2023/09/21 04:13:12;;;;;;;15.27;10.55;;;;;;;;;;5067202;28;20035;-75
2023/09/21 04:15:37;;;;;;;13.25;9.20;;;;;;;;;;5067764;28;20032;-76
2023/09/21 04:18:03;;;;;;;17.35;11.40;;;;;;;;;;5069410;28;20031;-76
2023/09/21 04:20:34;;;;;;;19.27;10.90;;;;;;;;;;5082903;28;20020;-74
2023/09/21 04:23:00;;;;;;;16.10;11.10;;;;;;;;;;5081632;28;20118;-75
2023/09/21 04:25:25;;;;;;;15.95;11.57;;;;;;;;;;5082176;28;20422;-74
2023/09/21 04:27:53;;;;;;;16.45;12.00;;;;;;;;;;5075236;28;20024;-72
2023/09/21 04:30:21;;;;;;;23.63;14.85;;;;;;;;;;5075442;28;20028;-76
2023/09/21 04:32:47;;;;;;;19.97;13.83;;;;;;;;;;5084437;28;20428;-73
2023/09/21 04:35:18;;;;;;;13.65;12.23;;;;;;;;;;5072396;28;20107;-74
2023/09/21 04:37:43;;;;;;;19.42;13.07;;;;;;;;;;5070891;28;20206;-76
2023/09/21 04:40:10;;;;;;;16.83;12.20;;;;;;;;;;5082064;28;20122;-75
2023/09/21 04:42:38;;;;;;;18.13;12.63;;;;;;;;;;5086156;28;20045;-75
2023/09/21 04:45:14;;;;;;;17.30;12.30;;;;;;;;;;5080418;28;20423;-74
2023/09/21 04:47:44;;;;;;;18.05;13.23;;;;;;;;;;5077973;28;20035;-71
2023/09/21 04:50:10;;;;;;;17.27;12.65;;;;;;;;;;5083122;28;20450;-73
2023/09/21 04:52:35;;;;;;;15.55;12.65;;;;;;;;;;5085533;28;20128;-72
2023/09/21 04:55:03;;;;;;;14.48;11.93;;;;;;;;;;5084658;28;20031;-72
2023/09/21 04:57:30;;;;;;;18.25;12.98;;;;;;;;;;5084262;28;20097;-73
2023/09/21 04:59:56;;;;;;;16.63;12.57;;;;;;;;;;5070520;28;20146;-72
2023/09/21 05:02:22;;;;;;;17.27;12.27;;;;;;;;;;5072481;28;20024;-71
2023/09/21 05:04:47;;;;;;;14.40;12.15;;;;;;;;;;5071266;28;20020;-75
2023/09/21 05:07:14;;;;;;;22.90;11.68;;;;;;;;;;5074957;28;20119;-72
2023/09/21 05:09:40;;;;;;;15.63;11.45;;;;;;;;;;5081463;28;20023;-72
2023/09/21 05:12:06;;;;;;;16.90;11.20;;;;;;;;;;5070037;28;20042;-75
2023/09/21 05:14:31;;;;;;;14.77;10.85;;;;;;;;;;5069905;28;20347;-71
2023/09/21 05:16:58;;;;;;;16.15;11.20;;;;;;;;;;5071099;28;20024;-72
2023/09/21 05:19:24;;;;;;;13.45;11.00;;;;;;;;;;5071225;28;20024;-73
2023/09/21 05:21:49;;;;;;;16.27;11.23;;;;;;;;;;5073762;28;20047;-72
2023/09/21 05:24:14;;;;;;;16.85;12.52;;;;;;;;;;5084443;28;20361;-72
2023/09/21 05:26:40;;;;;;;12.88;10.85;;;;;;;;;;5072612;28;20114;-72
2023/09/21 05:29:06;;;;;;;15.10;11.13;;;;;;;;;;5084329;28;20450;-72
2023/09/21 05:31:31;;;;;;;15.98;11.23;;;;;;;;;;5084986;28;20039;-76
2023/09/21 05:33:57;;;;;;;12.98;11.57;;;;;;;;;;5085194;28;20024;-75
2023/09/21 05:36:22;;;;;;;16.20;11.70;;;;;;;;;;5083743;28;20042;-73
2023/09/21 05:38:48;;;;;;;15.63;10.52;;;;;;;;;;5083517;28;20020;-76
2023/09/21 05:41:13;;;;;;;12.05;10.73;;;;;;;;;;5083167;28;20767;-73
2023/09/21 05:43:40;;;;;;;14.38;11.57;;;;;;;;;;5082882;28;20075;-74
2023/09/21 05:46:05;;;;;;;15.77;10.90;;;;;;;;;;5076293;28;20057;-73
2023/09/21 05:48:32;;;;;;;13.32;10.70;;;;;;;;;;5084242;28;20115;-73
2023/09/21 05:50:57;;;;;;;14.38;12.77;;;;;;;;;;5078563;28;20034;-75
2023/09/21 05:53:23;;;;;;;16.48;12.95;;;;;;;;;;5074435;28;20028;-74
2023/09/21 05:55:48;;;;;;;17.42;12.45;;;;;;;;;;5084687;28;20024;-75
2023/09/21 05:58:13;;;;;;;15.95;12.65;;;;;;;;;;5085776;28;20032;-75
2023/09/21 06:00:40;;;;;;;19.15;12.23;;;;;;;;;;5085882;28;20036;-74
2023/09/21 06:03:06;;;;;;;13.82;12.38;;;;;;;;;;5085845;28;20039;-75
2023/09/21 06:05:32;;;;;;;17.17;12.23;;;;;;;;;;5085829;28;20008;-80
2023/09/21 06:07:58;;;;;;;19.35;12.48;;;;;;;;;;5084524;28;20024;-75
2023/09/21 06:10:24;;;;;;;14.68;12.95;;;;;;;;;;5084950;28;20039;-76
2023/09/21 06:12:50;;;;;;;16.30;12.02;;;;;;;;;;5083020;28;20028;-75
2023/09/21 06:15:16;;;;;;;14.32;11.98;;;;;;;;;;5083849;28;20047;-75
2023/09/21 06:17:41;;;;;;;15.65;12.52;;;;;;;;;;5084304;28;20033;-75
2023/09/21 06:20:07;;;;;;;15.60;12.15;;;;;;;;;;5084424;28;20039;-76
2023/09/21 06:22:32;;;;;;;14.80;13.02;;;;;;;;;;5085846;28;20016;-76
2023/09/21 06:24:59;;;;;;;14.82;11.25;;;;;;;;;;5085086;28;20353;-76
2023/09/21 06:27:25;;;;;;;16.35;11.90;;;;;;;;;;5086276;28;20138;-75
2023/09/21 06:29:50;;;;;;;14.32;11.20;;;;;;;;;;5084859;28;20154;-74
2023/09/21 06:32:18;;;;;;;15.50;11.50;;;;;;;;;;5083818;28;20043;-75
2023/09/21 06:34:43;;;;;;;14.85;11.57;;;;;;;;;;5085083;28;20012;-76
2023/09/21 06:37:08;;;;;;;17.25;11.77;;;;;;;;;;5085136;28;20035;-74
2023/09/21 06:39:34;;;;;;;13.30;10.55;;;;;;;;;;5083840;28;20348;-74
2023/09/21 06:41:59;;;;;;;19.85;15.23;;;;;;;;;;5077986;28;20452;-75
2023/09/21 06:44:28;;;;;;;18.63;16.38;;;;;;;;;;5075873;28;20051;-74
2023/09/21 06:46:53;;;;;;;19.25;17.30;;;;;;;;;;5085674;28;20115;-74
2023/09/21 06:49:21;;;;;;;23.02;20.70;;;;;;;;;;5084696;28;20110;-75
2023/09/21 06:51:46;;;;;;;24.60;20.70;;;;;;;;;;5084726;28;20039;-75
2023/09/21 06:54:12;;;;;;;23.33;19.80;;;;;;;;;;5085392;28;20028;-79
2023/09/21 06:56:37;;;;;;;30.38;17.58;;;;;;;;;;5083313;28;20028;-76
2023/09/21 06:59:06;;;;;;;20.55;17.10;;;;;;;;;;5084859;28;20027;-76
2023/09/21 07:01:32;;;;;;;25.08;16.02;;;;;;;;;;5084594;28;20028;-76
2023/09/21 07:03:57;;;;;;;19.20;14.63;;;;;;;;;;5083727;28;20039;-76
2023/09/21 07:06:22;;;;;;;17.10;15.00;;;;;;;;;;5084505;28;20054;-76
2023/09/21 07:08:48;;;;;;;19.38;15.35;;;;;;;;;;5084514;28;20028;-76
2023/09/21 07:11:15;;;;;;;22.33;15.82;;;;;;;;;;5084774;28;20031;-75
2023/09/21 07:13:42;;;;;;;21.05;15.55;;;;;;;;;;5083731;28;20043;-76
2023/09/21 07:16:08;;;;;;;24.17;15.60;;;;;;;;;;5083909;28;20331;-75
2023/09/21 07:18:33;;;;;;;19.88;14.77;;;;;;;;;;5083812;28;20102;-76
2023/09/21 07:20:58;;;;;;;20.35;12.85;;;;;;;;;;5084478;28;20179;-77
2023/09/21 07:23:24;;;;;;;11.57;10.38;;;;;;;;;;5084884;28;20036;-75
2023/09/21 07:25:49;;;;;;;15.23;8.60;;;;;;;;;;5083767;28;20105;-74
2023/09/21 07:28:16;;;;;;;17.45;11.00;;;;;;;;;;5083506;28;20020;-76
2023/09/21 07:30:41;;;;;;;20.73;12.48;;;;;;;;;;5081647;28;20027;-76
2023/09/21 07:33:07;;;;;;;11.85;10.50;;;;;;;;;;5083852;28;20024;-75
2023/09/21 07:35:32;;;;;;;9.15;7.78;;;;;;;;;;5082898;28;20027;-76
2023/09/21 07:37:57;;;;;;;11.68;8.10;;;;;;;;;;5083632;28;20028;-74
2023/09/21 07:40:23;;;;;;;14.07;8.60;;;;;;;;;;5082992;28;20024;-76
2023/09/21 07:42:50;;;;;;;14.65;8.02;;;;;;;;;;5083378;28;20502;-75
2023/09/21 07:45:16;;;;;;;9.60;7.82;;;;;;;;;;5083129;28;20020;-74
2023/09/21 07:47:41;;;;;;;9.20;7.75;;;;;;;;;;5082955;28;20017;-78
2023/09/21 07:50:07;;;;;;;12.23;7.32;;;;;;;;;;5083793;28;20034;-76
2023/09/21 07:52:34;;;;;;;10.25;8.52;;;;;;;;;;5084522;28;20039;-75
2023/09/21 07:55:00;;;;;;;14.25;8.63;;;;;;;;;;5083400;28;20023;-75
2023/09/21 07:57:25;;;;;;;12.10;8.45;;;;;;;;;;5084911;28;20020;-76
2023/09/21 07:59:50;;;;;;;19.98;14.05;;;;;;;;;;5081773;28;20107;-76
2023/09/21 08:02:16;;;;;;;14.20;8.50;;;;;;;;;;5082279;28;20032;-75
2023/09/21 08:04:42;;;;;;;8.80;7.07;;;;;;;;;;5083499;28;20012;-75
2023/09/21 08:07:07;;;;;;;10.30;7.20;;;;;;;;;;5083193;28;20931;-76
2023/09/21 08:09:32;;;;;;;9.70;7.25;;;;;;;;;;5083252;28;20354;-76
2023/09/21 08:11:58;;;;;;;7.60;6.38;;;;;;;;;;5083145;28;21203;-76
2023/09/21 08:14:25;;;;;;;9.70;6.88;;;;;;;;;;5083074;28;20082;-75
2023/09/21 08:16:54;;;;;;;9.60;6.60;;;;;;;;;;5083933;28;20423;-77
2023/09/21 08:19:19;;;;;;;11.38;7.20;;;;;;;;;;5082556;28;20020;-76
2023/09/21 08:21:44;;;;;;;12.73;7.00;;;;;;;;;;5082371;28;20375;-76
2023/09/21 08:24:10;;;;;;;9.85;7.38;;;;;;;;;;5082443;28;20107;-74
2023/09/21 08:26:36;;;;;;;8.15;6.40;;;;;;;;;;5083008;28;20077;-76
2023/09/21 08:29:01;;;;;;;9.35;6.63;;;;;;;;;;5082578;28;20453;-77
2023/09/21 08:31:27;;;;;;;11.80;7.13;;;;;;;;;;5082941;28;20032;-75
2023/09/21 08:33:53;;;;;;;8.05;7.10;;;;;;;;;;5082292;28;20024;-75
2023/09/21 08:36:18;;;;;;;9.45;7.28;;;;;;;;;;5082543;28;20028;-75
2023/09/21 08:38:43;;;;;;;10.45;7.75;;;;;;;;;;5082056;28;20027;-74
2023/09/21 08:41:09;;;;;;;15.15;13.55;;;;;;;;;;5082367;28;20435;-74
2023/09/21 08:43:34;;;;;;;10.98;9.35;;;;;;;;;;5082294;28;20052;-74
2023/09/21 08:46:00;;;;;;;9.90;7.03;;;;;;;;;;5082877;28;20149;-76
2023/09/21 08:48:26;;;;;;;10.27;7.05;;;;;;;;;;5083246;28;20062;-76
2023/09/21 08:50:52;;;;;;;10.43;7.03;;;;;;;;;;5082119;28;20572;-75
2023/09/21 08:53:18;;;;;;;10.00;6.22;;;;;;;;;;5081287;28;20036;-74
2023/09/21 08:55:45;;;;;;;8.93;6.35;;;;;;;;;;5081874;28;20074;-75
2023/09/21 08:58:11;;;;;;;8.80;7.65;;;;;;;;;;5083008;28;20024;-74
2023/09/21 09:00:38;;;;;;;9.57;7.57;;;;;;;;;;5081603;28;20051;-76
2023/09/21 09:03:03;;;;;;;10.52;7.60;;;;;;;;;;5081813;28;20024;-75
2023/09/21 09:05:29;;;;;;;12.38;7.63;;;;;;;;;;5083501;28;20556;-75
2023/09/21 09:07:54;;;;;;;8.63;7.00;;;;;;;;;;5082076;28;20323;-75
2023/09/21 09:10:19;;;;;;;8.75;6.13;;;;;;;;;;5083301;28;20077;-74
2023/09/21 09:12:46;;;;;;;8.18;7.38;;;;;;;;;;5082616;28;20103;-77
2023/09/21 09:15:12;;;;;;;9.70;7.60;;;;;;;;;;5081442;28;20031;-74
2023/09/21 09:17:37;;;;;;;11.73;7.10;;;;;;;;;;5081669;28;20097;-75
2023/09/21 09:20:03;;;;;;;15.95;14.25;;;;;;;;;;5084484;28;20034;-74
2023/09/21 09:22:31;;;;;;;14.00;12.10;;;;;;;;;;5086619;28;20416;-74
2023/09/21 09:25:02;;;;;;;12.77;7.95;;;;;;;;;;5085679;28;20438;-77
2023/09/21 09:27:28;;;;;;;11.75;9.13;;;;;;;;;;5086185;28;20135;-74
2023/09/21 09:29:54;;;;;;;19.48;17.67;;;;;;;;;;5085365;28;20150;-75
2023/09/21 09:32:19;;;;;;;17.73;15.93;;;;;;;;;;5086624;28;20028;-75
2023/09/21 09:34:48;;;;;;;10.75;7.90;;;;;;;;;;5084543;28;20028;-75
2023/09/21 09:37:16;;;;;;;10.87;8.33;;;;;;;;;;5085772;28;20031;-76
2023/09/21 09:39:45;;;;;;;9.80;8.15;;;;;;;;;;5085264;28;20470;-78
2023/09/21 09:42:12;;;;;;;10.93;7.57;;;;;;;;;;5086010;28;20443;-76
2023/09/21 09:44:42;;;;;;;12.10;7.88;;;;;;;;;;5085977;28;20020;-77
2023/09/21 09:47:09;;;;;;;12.05;7.72;;;;;;;;;;5072751;28;22255;-76
2023/09/21 09:49:38;;;;;;;7.60;6.53;;;;;;;;;;5087743;28;20040;-76
2023/09/21 09:52:06;;;;;;;;;;;;;;;;;;5085922;28;20027;-77
2023/09/21 09:54:31;;;;;;;11.98;6.63;;;;;;;;;;5085270;28;19912;-76
2023/09/21 09:56:57;;;;;;;7.80;6.88;;;;;;;;;;5085654;28;20035;-76
2023/09/21 09:59:23;;;;;;;10.07;6.75;;;;;;;;;;5085022;28;20103;-78
2023/09/21 10:01:49;;;;;;;7.72;6.70;;;;;;;;;;5085213;28;20182;-75
2023/09/21 10:04:15;;;;;;;8.27;7.30;;;;;;;;;;5084539;28;20078;-77
2023/09/21 10:06:42;;;;;;;9.48;6.88;;;;;;;;;;5086200;28;20127;-76
2023/09/21 10:09:13;;;;;;;10.02;7.32;;;;;;;;;;5085877;28;20036;-75
2023/09/21 10:11:45;;;;;;;9.20;7.10;;;;;;;;;;5085790;28;20394;-75
2023/09/21 10:14:12;;;;;;;7.07;6.38;;;;;;;;;;5085169;28;20353;-76
2023/09/21 10:16:49;;;;;;;10.27;6.65;;;;;;;;;;5085975;28;20036;-77
2023/09/21 10:19:17;;;;;;;8.68;6.78;;;;;;;;;;5084801;28;20024;-76
2023/09/21 10:21:45;;;;;;;8.17;7.23;;;;;;;;;;5084869;28;20027;-76
2023/09/21 10:24:14;;;;;;;8.70;6.80;;;;;;;;;;5086114;28;20252;-77
2023/09/21 10:26:45;;;;;;;10.23;6.35;;;;;;;;;;5084321;28;20062;-77
2023/09/21 10:29:15;;;;;;;9.00;7.20;;;;;;;;;;5084366;28;20042;-75
2023/09/21 10:31:44;;;;;;;10.23;7.03;;;;;;;;;;5083930;28;20024;-75
2023/09/21 10:34:09;;;;;;;;;;;;;;;;;;5082898;28;20111;-75
2023/09/21 10:36:42;;;;;;;8.40;6.53;;;;;;;;;;5085859;28;20002;-77
2023/09/21 10:39:10;;;;;;;15.73;7.38;;;;;;;;;;5085427;28;21528;-76
2023/09/21 10:41:41;;;;;;;9.30;6.95;;;;;;;;;;5084080;28;20027;-77
2023/09/21 10:44:07;;;;;;;10.15;6.93;;;;;;;;;;5084493;28;20039;-75
2023/09/21 10:46:37;;;;;;;14.70;7.00;;;;;;;;;;5084011;28;20032;-76
2023/09/21 10:49:05;;;;;;;10.93;7.35;;;;;;;;;;5084942;28;20039;-75
2023/09/21 10:51:31;;;;;;;9.13;6.70;;;;;;;;;;5083880;28;20051;-76
2023/09/21 10:53:59;;;;;;;8.02;6.88;;;;;;;;;;5084467;28;20789;-76
2023/09/21 10:56:24;;;;;;;7.65;6.68;;;;;;;;;;5084699;28;20035;-75
2023/09/21 10:58:50;;;;;;;9.10;6.35;;;;;;;;;;5084442;28;20024;-76
2023/09/21 11:01:15;;;;;;;12.40;7.35;;;;;;;;;;5083246;28;20606;-76
2023/09/21 11:03:43;;;;;;;8.70;6.63;;;;;;;;;;5083420;28;20038;-78
2023/09/21 11:06:09;;;;;;;7.72;6.95;;;;;;;;;;5084271;28;20024;-75
2023/09/21 11:08:34;;;;;;;8.98;6.68;;;;;;;;;;5084157;28;20027;-76
2023/09/21 11:11:02;;;;;;;10.30;7.13;;;;;;;;;;5084235;28;20028;-77
2023/09/21 11:13:28;;;;;;;9.00;6.65;;;;;;;;;;5083778;28;20110;-77
2023/09/21 11:15:54;;;;;;;8.77;6.50;;;;;;;;;;5083121;28;20353;-76
2023/09/21 11:18:20;;;;;;;18.00;7.68;;;;;;;;;;5085081;28;20116;-76
2023/09/21 11:20:46;;;;;;;8.98;7.25;;;;;;;;;;5083914;28;20074;-75
2023/09/21 11:23:11;;;;;;;8.40;6.28;;;;;;;;;;5083963;28;20738;-77
2023/09/21 11:25:37;;;;;;;8.48;5.80;;;;;;;;;;5081544;28;20024;-79
2023/09/21 11:28:03;;;;;;;13.77;6.63;;;;;;;;;;5074627;28;20031;-76
2023/09/21 11:30:28;;;;;;;10.70;6.00;;;;;;;;;;5083103;28;20324;-76
2023/09/21 11:32:54;;;;;;;10.02;6.10;;;;;;;;;;5071973;28;20032;-76
2023/09/21 11:35:20;;;;;;;8.20;5.32;;;;;;;;;;5074532;28;20055;-77
2023/09/21 11:37:46;;;;;;;13.90;6.38;;;;;;;;;;5067915;28;20036;-78
2023/09/21 11:40:13;;;;;;;7.32;5.38;;;;;;;;;;5069877;28;20419;-75
2023/09/21 11:42:44;;;;;;;8.80;5.95;;;;;;;;;;5067929;28;20390;-76
2023/09/21 11:45:20;;;;;;;7.40;5.85;;;;;;;;;;5069401;28;20049;-78
2023/09/21 11:47:49;;;;;;;10.43;6.30;;;;;;;;;;5068691;28;20082;-77
2023/09/21 11:50:14;;;;;;;;;;;;;;;;;;5066846;28;21005;-77
2023/09/21 11:52:39;;;;;;;7.77;5.20;;;;;;;;;;5067357;28;19916;-77
2023/09/21 11:55:05;;;;;;;7.65;5.65;;;;;;;;;;5068212;28;20030;-77
2023/09/21 11:57:30;;;;;;;10.80;5.70;;;;;;;;;;5066997;28;20035;-77
2023/09/21 11:59:56;;;;;;;9.98;6.10;;;;;;;;;;5067482;28;20461;-77
2023/09/21 12:02:21;;;;;;;9.75;6.05;;;;;;;;;;5068320;28;20114;-75
2023/09/21 12:04:49;;;;;;;9.30;5.97;;;;;;;;;;5068309;28;20016;-78
2023/09/21 12:07:14;;;;;;;9.02;5.80;;;;;;;;;;5070077;28;20024;-78
2023/09/21 12:09:40;;;;;;;9.65;5.90;;;;;;;;;;5068596;28;20023;-78
2023/09/21 12:12:09;;;;;;;9.10;6.07;;;;;;;;;;5067801;28;20059;-79
2023/09/21 12:14:35;;;;;;;6.35;5.65;;;;;;;;;;5066013;28;20146;-79
2023/09/21 12:17:04;;;;;;;7.82;6.10;;;;;;;;;;5067675;28;20050;-77
2023/09/21 12:19:31;;;;;;;11.77;6.57;;;;;;;;;;5068606;28;20024;-78
2023/09/21 12:21:57;;;;;;;13.05;5.28;;;;;;;;;;5067654;28;20090;-77
2023/09/21 12:24:22;;;;;;;6.75;5.22;;;;;;;;;;5067593;28;20355;-77
2023/09/21 12:26:48;;;;;;;8.63;5.35;;;;;;;;;;5067460;28;20020;-76
2023/09/21 12:29:17;;;;;;;8.60;5.38;;;;;;;;;;5068253;28;20055;-78
2023/09/21 12:31:43;;;;;;;9.85;5.50;;;;;;;;;;5066317;28;20078;-77
2023/09/21 12:34:09;;;;;;;8.55;5.90;;;;;;;;;;5067934;28;20052;-77
2023/09/21 12:36:34;;;;;;;9.40;5.68;;;;;;;;;;5068177;28;20065;-78
2023/09/21 12:39:00;;;;;;;8.10;5.40;;;;;;;;;;5067055;28;20024;-76
2023/09/21 12:41:26;;;;;;;8.18;5.25;;;;;;;;;;5067471;28;20094;-78
2023/09/21 12:43:52;;;;;;;9.68;5.68;;;;;;;;;;5067390;28;20101;-78
2023/09/21 12:46:18;;;;;;;7.82;5.47;;;;;;;;;;5067691;28;20052;-77
2023/09/21 12:48:43;;;;;;;12.15;6.30;;;;;;;;;;5067791;28;20028;-76
2023/09/21 12:51:09;;;;;;;7.55;5.15;;;;;;;;;;5067415;28;20347;-75
2023/09/21 12:53:34;;;;;;;10.27;5.28;;;;;;;;;;5067688;28;20085;-75
2023/09/21 12:56:00;;;;;;;9.27;4.78;;;;;;;;;;5083483;28;20027;-77
2023/09/21 12:58:26;;;;;;;5.80;5.20;;;;;;;;;;5087474;28;20092;-76
2023/09/21 13:00:52;;;;;;;7.88;5.20;;;;;;;;;;5086863;28;20031;-76
2023/09/21 13:03:18;;;;;;;7.22;5.22;;;;;;;;;;5085841;28;20350;-77
2023/09/21 13:05:47;;;;;;;7.57;5.10;;;;;;;;;;5079322;28;20031;-77
2023/09/21 13:08:13;;;;;;;7.80;4.95;;;;;;;;;;5069949;28;20166;-76
2023/09/21 13:10:41;;;;;;;11.43;5.25;;;;;;;;;;5072077;28;20174;-76
2023/09/21 13:13:07;;;;;;;10.23;5.53;;;;;;;;;;5070294;28;20039;-75
2023/09/21 13:15:33;;;;;;;8.95;5.32;;;;;;;;;;5055291;28;20328;-77
2023/09/21 13:18:00;;;;;;;5.97;4.50;;;;;;;;;;5072163;28;20028;-76
2023/09/21 13:20:26;;;;;;;9.27;5.35;;;;;;;;;;5083134;28;20020;-76
2023/09/21 13:22:52;;;;;;;6.55;5.07;;;;;;;;;;5083381;28;20020;-78
2023/09/21 13:25:18;;;;;;;7.82;4.90;;;;;;;;;;5085943;28;20342;-77
2023/09/21 13:27:43;;;;;;;8.02;5.25;;;;;;;;;;5081494;28;20059;-78
2023/09/21 13:30:09;;;;;;;7.22;4.88;;;;;;;;;;5070726;28;20505;-75
2023/09/21 13:32:36;;;;;;;8.98;5.22;;;;;;;;;;5067280;28;20028;-78
2023/09/21 13:35:04;;;;;;;8.57;5.55;;;;;;;;;;5078486;28;20374;-75
2023/09/21 13:37:29;;;;;;;9.52;5.35;;;;;;;;;;5084635;28;20024;-73
2023/09/21 13:39:55;;;;;;;9.93;5.65;;;;;;;;;;5084919;28;20054;-75
2023/09/21 13:42:20;;;;;;;6.10;4.75;;;;;;;;;;5081123;28;20059;-77
2023/09/21 13:44:46;;;;;;;6.53;4.78;;;;;;;;;;5067363;28;20047;-75
2023/09/21 13:47:13;;;;;;;7.15;4.78;;;;;;;;;;5059689;28;20110;-77
2023/09/21 13:49:39;;;;;;;7.93;4.72;;;;;;;;;;5080856;28;20036;-76
2023/09/21 13:52:04;;;;;;;7.20;4.90;;;;;;;;;;5080403;28;20036;-75
2023/09/21 13:54:30;;;;;;;8.43;5.07;;;;;;;;;;5049566;28;20035;-76
2023/09/21 13:56:56;;;;;;;6.32;5.03;;;;;;;;;;5049480;28;20504;-76
2023/09/21 13:59:24;;;;;;;7.50;5.43;;;;;;;;;;5033387;28;20166;-76
2023/09/21 14:01:51;;;;;;;15.85;5.35;;;;;;;;;;5066668;28;20119;-76
2023/09/21 14:04:25;;;;;;;7.15;5.45;;;;;;;;;;5066367;28;20046;-76
2023/09/21 14:06:50;;;;;;;10.32;5.15;;;;;;;;;;5048748;28;20042;-75
2023/09/21 14:09:16;;;;;;;7.15;4.75;;;;;;;;;;5065889;28;20406;-77
2023/09/21 14:11:41;;;;;;;8.52;5.50;;;;;;;;;;5066034;28;20028;-76
2023/09/21 14:14:07;;;;;;;8.15;5.45;;;;;;;;;;5063910;28;20071;-77
2023/09/21 14:16:32;;;;;;;7.85;5.03;;;;;;;;;;5069370;28;20035;-76
2023/09/21 14:18:58;;;;;;;8.35;5.22;;;;;;;;;;5073822;28;20432;-77
2023/09/21 14:21:26;;;;;;;8.57;4.93;;;;;;;;;;5084584;28;20101;-77
2023/09/21 14:23:51;;;;;;;8.38;4.97;;;;;;;;;;5067009;28;20032;-80
2023/09/21 14:26:16;;;;;;;6.85;5.35;;;;;;;;;;5085355;28;20047;-77